createdAt,value
2023-03-29T00:00:26.342Z,-1.11
2023-03-29T00:01:36.190Z,-1.12
2023-03-29T00:02:39.410Z,-1.17
2023-03-29T00:03:44.495Z,-1.12
2023-03-29T00:04:47.408Z,-1.13
2023-03-29T00:05:51.340Z,-1.13
2023-03-29T00:06:54.266Z,-1.12
2023-03-29T00:08:02.079Z,-1.10
2023-03-29T00:09:06.514Z,-1.10
2023-03-29T00:10:12.504Z,-1.12
2023-03-29T00:11:15.176Z,-1.11
2023-03-29T00:12:18.740Z,-1.10
2023-03-29T00:13:21.480Z,-1.09
2023-03-29T00:14:26.924Z,-1.09
2023-03-29T00:15:29.414Z,-1.10
2023-03-29T00:16:33.242Z,-1.10
2023-03-29T00:17:35.500Z,-1.08
2023-03-29T00:18:39.217Z,-1.09
2023-03-29T00:19:46.472Z,-1.09
2023-03-29T00:20:56.635Z,-1.10
2023-03-29T00:21:59.203Z,-1.09
2023-03-29T00:23:02.985Z,-1.10
2023-03-29T00:24:07.040Z,-1.08
2023-03-29T00:25:12.002Z,-1.11
2023-03-29T00:26:14.664Z,-1.08
2023-03-29T00:27:20.027Z,-1.08
2023-03-29T00:28:22.886Z,-1.09
2023-03-29T00:29:26.548Z,-1.07
2023-03-29T00:30:29.240Z,-1.11
2023-03-29T00:31:33.038Z,-1.09
2023-03-29T00:32:35.559Z,-1.10
2023-03-29T00:33:40.035Z,-1.13
2023-03-29T00:34:42.985Z,-1.13
2023-03-29T00:35:48.703Z,-1.16
2023-03-29T00:36:53.162Z,-1.13
2023-03-29T00:37:58.068Z,-1.14
2023-03-29T00:39:00.662Z,-1.15
2023-03-29T00:40:09.773Z,-1.17
2023-03-29T00:41:12.388Z,-1.17
2023-03-29T00:42:18.800Z,-1.17
2023-03-29T00:43:22.344Z,-1.17
2023-03-29T00:44:56.825Z,-1.19
2023-03-29T00:46:00.539Z,-1.19
2023-03-29T00:47:02.803Z,-1.20
2023-03-29T00:48:09.198Z,-1.21
2023-03-29T00:49:13.850Z,-1.24
2023-03-29T00:50:22.710Z,-1.27
2023-03-29T00:51:33.153Z,-1.21
2023-03-29T00:52:37.639Z,-1.23
2023-03-29T00:53:43.902Z,-1.23
2023-03-29T00:54:48.924Z,-1.24
2023-03-29T00:55:56.310Z,-1.26
2023-03-29T00:57:04.324Z,-1.24
2023-03-29T00:58:10.465Z,-1.29
2023-03-29T00:59:17.989Z,-1.25
2023-03-29T01:00:25.012Z,-1.28
2023-03-29T01:01:34.277Z,-1.28
2023-03-29T01:02:40.001Z,-1.29
2023-03-29T01:03:46.921Z,-1.29
2023-03-29T01:04:53.812Z,-1.31
2023-03-29T01:06:02.614Z,-1.31
2023-03-29T01:07:08.308Z,-1.34
2023-03-29T01:08:18.691Z,-1.33
2023-03-29T01:09:24.375Z,-1.35
2023-03-29T01:10:36.108Z,-1.35
2023-03-29T01:11:45.913Z,-1.36
2023-03-29T01:12:51.986Z,-1.36
2023-03-29T01:13:59.734Z,-1.36
2023-03-29T01:15:06.774Z,-1.36
2023-03-29T01:16:13.145Z,-1.37
2023-03-29T01:17:16.336Z,-1.39
2023-03-29T01:18:22.300Z,-1.39
2023-03-29T01:19:30.623Z,-1.40
2023-03-29T01:20:49.223Z,-1.39
2023-03-29T01:21:56.486Z,-1.43
2023-03-29T01:23:14.446Z,-1.41
2023-03-29T01:24:43.796Z,-1.41
2023-03-29T01:25:56.374Z,-1.44
2023-03-29T01:27:10.978Z,-1.43
2023-03-29T01:28:17.616Z,-1.44
2023-03-29T01:29:27.168Z,-1.44
2023-03-29T01:30:34.107Z,-1.45
2023-03-29T01:31:41.321Z,-1.46
2023-03-29T01:32:50.707Z,-1.44
2023-03-29T01:34:02.890Z,-1.45
2023-03-29T01:35:14.872Z,-1.45
2023-03-29T01:36:23.708Z,-1.45
2023-03-29T01:37:34.385Z,-1.46
2023-03-29T01:38:43.468Z,-1.48
2023-03-29T01:39:47.848Z,-1.46
2023-03-29T01:40:50.643Z,-1.47
2023-03-29T01:42:02.944Z,-1.48
2023-03-29T01:43:14.205Z,-1.47
2023-03-29T01:44:21.561Z,-1.50
2023-03-29T01:45:28.924Z,-1.49
2023-03-29T01:46:36.472Z,-1.50
2023-03-29T01:47:47.893Z,-1.48
2023-03-29T01:48:52.967Z,-1.50
2023-03-29T01:50:07.037Z,-1.49
2023-03-29T01:51:14.303Z,-1.49
2023-03-29T01:52:24.254Z,-1.50
2023-03-29T01:53:31.392Z,-1.49
2023-03-29T01:54:38.623Z,-1.52
2023-03-29T01:55:45.533Z,-1.50
2023-03-29T01:56:52.043Z,-1.50
2023-03-29T01:57:58.437Z,-1.46
2023-03-29T01:59:05.417Z,-1.44
2023-03-29T02:00:14.555Z,-1.46
2023-03-29T02:01:21.713Z,-1.43
2023-03-29T02:02:28.167Z,-1.41
2023-03-29T02:03:34.168Z,-1.41
2023-03-29T02:04:41.719Z,-1.40
2023-03-29T02:05:47.545Z,-1.37
2023-03-29T02:06:54.430Z,-1.38
2023-03-29T02:08:00.365Z,-1.38
2023-03-29T02:09:05.082Z,-1.35
2023-03-29T02:10:11.537Z,-1.36
2023-03-29T02:11:15.442Z,-1.34
2023-03-29T02:12:20.452Z,-1.31
2023-03-29T02:13:23.106Z,-1.32
2023-03-29T02:14:27.001Z,-1.28
2023-03-29T02:15:52.032Z,-1.24
2023-03-29T02:16:54.518Z,-1.24
2023-03-29T02:17:58.219Z,-1.22
2023-03-29T02:19:00.669Z,-1.18
2023-03-29T02:20:14.700Z,-1.18
2023-03-29T02:21:24.806Z,-1.15
2023-03-29T02:22:31.992Z,-1.11
2023-03-29T02:23:39.042Z,-1.10
2023-03-29T02:24:46.675Z,-1.07
2023-03-29T02:25:53.696Z,-1.06
2023-03-29T02:26:57.447Z,-1.00
2023-03-29T02:28:02.270Z,-0.97
2023-03-29T02:29:05.045Z,-0.98
2023-03-29T02:30:12.261Z,-0.94
2023-03-29T02:31:22.898Z,-0.94
2023-03-29T02:32:35.722Z,-0.90
2023-03-29T02:33:45.857Z,-0.89
2023-03-29T02:34:52.185Z,-0.86
2023-03-29T02:35:59.457Z,-0.84
2023-03-29T02:37:08.416Z,-0.83
2023-03-29T02:38:11.931Z,-0.83
2023-03-29T02:39:18.057Z,-0.81
2023-03-29T02:40:23.920Z,-0.81
2023-03-29T02:41:28.568Z,-0.76
2023-03-29T02:42:31.927Z,-0.74
2023-03-29T02:43:37.346Z,-0.71
2023-03-29T02:44:42.570Z,-0.67
2023-03-29T02:45:47.383Z,-0.66
2023-03-29T02:46:55.698Z,-0.63
2023-03-29T02:48:04.255Z,-0.62
2023-03-29T02:49:07.005Z,-0.59
2023-03-29T02:50:11.015Z,-0.58
2023-03-29T02:51:20.036Z,-0.55
2023-03-29T02:52:28.415Z,-0.54
2023-03-29T02:53:37.356Z,-0.54
2023-03-29T02:54:43.386Z,-0.52
2023-03-29T02:55:47.086Z,-0.53
2023-03-29T02:56:52.171Z,-0.51
2023-03-29T02:57:54.733Z,-0.51
2023-03-29T02:58:58.327Z,-0.51
2023-03-29T03:00:01.404Z,-0.47
2023-03-29T03:01:07.139Z,-0.45
2023-03-29T03:02:12.099Z,-0.43
2023-03-29T03:03:17.073Z,-0.44
2023-03-29T03:04:20.837Z,-0.41
2023-03-29T03:05:24.489Z,-0.40
2023-03-29T03:06:27.660Z,-0.39
2023-03-29T03:07:31.305Z,-0.36
2023-03-29T03:08:34.820Z,-0.34
2023-03-29T03:09:37.297Z,-0.30
2023-03-29T03:10:41.227Z,-0.32
2023-03-29T03:11:44.456Z,-0.34
2023-03-29T03:12:48.106Z,-0.30
2023-03-29T03:13:50.856Z,-0.29
2023-03-29T03:14:54.976Z,-0.27
2023-03-29T03:15:57.563Z,-0.25
2023-03-29T03:17:03.924Z,-0.25
2023-03-29T03:18:10.385Z,-0.20
2023-03-29T03:19:13.575Z,-0.20
2023-03-29T03:20:17.467Z,-0.19
2023-03-29T03:21:20.354Z,-0.18
2023-03-29T03:22:25.039Z,-0.19
2023-03-29T03:23:30.007Z,-0.17
2023-03-29T03:24:32.921Z,-0.20
2023-03-29T03:25:37.264Z,-0.17
2023-03-29T03:26:39.848Z,-0.16
2023-03-29T03:27:43.496Z,-0.19
2023-03-29T03:28:46.085Z,-0.17
2023-03-29T03:29:49.557Z,-0.19
2023-03-29T03:30:52.179Z,-0.25
2023-03-29T03:31:55.843Z,-0.21
2023-03-29T03:32:58.078Z,-0.17
2023-03-29T03:34:03.372Z,-0.18
2023-03-29T03:35:07.783Z,-0.14
2023-03-29T03:36:12.580Z,-0.08
2023-03-29T03:37:15.673Z,-0.08
2023-03-29T03:38:19.343Z,-0.10
2023-03-29T03:39:22.012Z,-0.06
2023-03-29T03:40:27.857Z,-0.03
2023-03-29T03:41:31.013Z,-0.01
2023-03-29T03:42:34.611Z,-0.00
2023-03-29T03:43:37.234Z,0.01
2023-03-29T03:44:40.843Z,0.01
2023-03-29T03:45:44.969Z,0.04
2023-03-29T03:46:47.515Z,0.04
2023-03-29T03:47:52.364Z,0.02
2023-03-29T03:48:54.860Z,0.04
2023-03-29T03:49:59.919Z,0.01
2023-03-29T03:51:03.854Z,0.08
2023-03-29T03:52:08.046Z,0.09
2023-03-29T03:53:10.622Z,0.08
2023-03-29T03:54:14.231Z,0.10
2023-03-29T03:55:17.020Z,0.06
2023-03-29T03:56:20.733Z,0.04
2023-03-29T03:57:23.291Z,0.04
2023-03-29T03:58:27.320Z,0.01
2023-03-29T03:59:29.792Z,-0.02
2023-03-29T04:00:33.648Z,-0.00
2023-03-29T04:01:35.745Z,0.02
2023-03-29T04:02:39.303Z,0.04
2023-03-29T04:03:41.918Z,0.08
2023-03-29T04:04:45.463Z,0.07
2023-03-29T04:05:49.517Z,0.07
2023-03-29T04:06:53.154Z,0.08
2023-03-29T04:07:56.361Z,0.09
2023-03-29T04:08:59.920Z,0.04
2023-03-29T04:10:02.799Z,0.06
2023-03-29T04:11:07.881Z,-0.00
2023-03-29T04:12:11.521Z,-0.10
2023-03-29T04:13:15.059Z,-0.08
2023-03-29T04:14:17.638Z,-0.07
2023-03-29T04:15:21.858Z,-0.08
2023-03-29T04:16:24.850Z,-0.11
2023-03-29T04:17:28.670Z,-0.13
2023-03-29T04:18:30.955Z,-0.10
2023-03-29T04:19:34.634Z,-0.09
2023-03-29T04:20:37.396Z,-0.06
2023-03-29T04:21:43.296Z,-0.05
2023-03-29T04:22:45.945Z,-0.02
2023-03-29T04:23:49.576Z,-0.02
2023-03-29T04:24:52.095Z,-0.02
2023-03-29T04:25:56.873Z,0.03
2023-03-29T04:26:59.443Z,0.05
2023-03-29T04:28:03.125Z,0.02
2023-03-29T04:29:05.729Z,0.09
2023-03-29T04:30:09.751Z,0.09
2023-03-29T04:31:13.367Z,0.05
2023-03-29T04:32:17.077Z,0.00
2023-03-29T04:33:19.572Z,-0.00
2023-03-29T04:34:23.149Z,0.01
2023-03-29T04:35:25.668Z,0.01
2023-03-29T04:36:29.289Z,0.03
2023-03-29T04:37:34.862Z,0.01
2023-03-29T04:38:38.631Z,-0.01
2023-03-29T04:39:41.411Z,-0.01
2023-03-29T04:40:45.445Z,-0.03
2023-03-29T04:41:48.719Z,-0.06
2023-03-29T04:42:52.876Z,-0.04
2023-03-29T04:43:56.391Z,-0.01
2023-03-29T04:45:00.748Z,-0.00
2023-03-29T04:46:03.788Z,0.02
2023-03-29T04:47:07.500Z,-0.00
2023-03-29T04:48:11.013Z,-0.01
2023-03-29T04:49:14.627Z,0.01
2023-03-29T04:50:17.319Z,0.06
2023-03-29T04:51:22.496Z,0.08
2023-03-29T04:52:25.516Z,0.11
2023-03-29T04:53:30.621Z,0.09
2023-03-29T04:54:33.342Z,0.10
2023-03-29T04:55:37.142Z,0.11
2023-03-29T04:56:40.787Z,0.12
2023-03-29T04:57:45.000Z,0.12
2023-03-29T04:58:48.726Z,0.15
2023-03-29T04:59:51.695Z,0.17
2023-03-29T05:00:58.367Z,0.15
2023-03-29T05:02:01.422Z,0.18
2023-03-29T05:03:07.105Z,0.17
2023-03-29T05:04:12.630Z,0.18
2023-03-29T05:05:16.739Z,0.20
2023-03-29T05:06:19.004Z,0.24
2023-03-29T05:07:23.233Z,0.18
2023-03-29T05:08:25.737Z,0.24
2023-03-29T05:09:32.465Z,0.24
2023-03-29T05:10:39.402Z,0.25
2023-03-29T05:11:44.449Z,0.27
2023-03-29T05:12:47.283Z,0.31
2023-03-29T05:13:51.254Z,0.33
2023-03-29T05:14:53.949Z,0.36
2023-03-29T05:15:58.465Z,0.33
2023-03-29T05:17:01.653Z,0.26
2023-03-29T05:18:05.699Z,0.37
2023-03-29T05:19:11.503Z,0.40
2023-03-29T05:20:16.193Z,0.38
2023-03-29T05:21:18.893Z,0.43
2023-03-29T05:22:23.654Z,0.45
2023-03-29T05:23:26.278Z,0.45
2023-03-29T05:24:31.268Z,0.48
2023-03-29T05:25:34.207Z,0.54
2023-03-29T05:26:37.876Z,0.59
2023-03-29T05:27:40.366Z,0.61
2023-03-29T05:28:44.099Z,0.64
2023-03-29T05:29:48.143Z,0.66
2023-03-29T05:31:02.619Z,0.63
2023-03-29T05:32:07.338Z,0.67
2023-03-29T05:33:10.657Z,0.65
2023-03-29T05:34:14.323Z,0.64
2023-03-29T05:35:17.029Z,0.69
2023-03-29T05:36:21.251Z,0.70
2023-03-29T05:37:23.795Z,0.63
2023-03-29T05:38:27.328Z,0.66
2023-03-29T05:39:31.798Z,0.61
2023-03-29T05:40:36.003Z,0.66
2023-03-29T05:41:39.081Z,0.61
2023-03-29T05:42:43.020Z,0.63
2023-03-29T05:43:45.907Z,0.58
2023-03-29T05:44:50.084Z,0.59
2023-03-29T05:45:54.303Z,0.53
2023-03-29T05:46:58.498Z,0.50
2023-03-29T05:48:01.035Z,0.51
2023-03-29T05:49:05.117Z,0.48
2023-03-29T05:50:10.606Z,0.49
2023-03-29T05:51:14.206Z,0.41
2023-03-29T05:52:18.854Z,0.41
2023-03-29T05:53:22.952Z,0.42
2023-03-29T05:54:27.460Z,0.38
2023-03-29T05:55:31.405Z,0.38
2023-03-29T05:56:34.921Z,0.40
2023-03-29T05:57:38.078Z,0.37
2023-03-29T05:58:41.748Z,0.44
2023-03-29T05:59:44.272Z,0.51
2023-03-29T06:00:49.867Z,0.58
2023-03-29T06:01:54.271Z,0.53
2023-03-29T06:03:09.879Z,0.46
2023-03-29T06:04:18.324Z,0.48
2023-03-29T06:05:20.922Z,0.45
2023-03-29T06:06:24.496Z,0.46
2023-03-29T06:07:27.150Z,0.55
2023-03-29T06:08:31.986Z,0.60
2023-03-29T06:09:34.515Z,0.65
2023-03-29T06:10:40.676Z,0.68
2023-03-29T06:11:43.167Z,0.78
2023-03-29T06:12:47.139Z,0.83
2023-03-29T06:13:50.799Z,0.89
2023-03-29T06:14:53.026Z,0.96
2023-03-29T06:15:56.743Z,1.01
2023-03-29T06:16:58.971Z,1.05
2023-03-29T06:18:03.766Z,1.09
2023-03-29T06:19:07.965Z,1.15
2023-03-29T06:20:11.134Z,1.12
2023-03-29T06:21:14.720Z,1.04
2023-03-29T06:22:17.377Z,1.02
2023-03-29T06:23:21.862Z,1.02
2023-03-29T06:24:25.300Z,1.05
2023-03-29T06:25:28.939Z,1.01
2023-03-29T06:26:33.062Z,1.08
2023-03-29T06:27:37.273Z,1.16
2023-03-29T06:28:42.059Z,1.22
2023-03-29T06:29:44.975Z,1.27
2023-03-29T06:30:49.889Z,1.34
2023-03-29T06:31:55.141Z,1.41
2023-03-29T06:32:59.572Z,1.49
2023-03-29T06:34:04.829Z,1.53
2023-03-29T06:35:08.483Z,1.47
2023-03-29T06:36:14.143Z,1.44
2023-03-29T06:37:16.699Z,1.40
2023-03-29T06:38:20.967Z,1.26
2023-03-29T06:39:23.491Z,1.23
2023-03-29T06:40:27.663Z,1.24
2023-03-29T06:41:31.778Z,1.20
2023-03-29T06:42:36.124Z,1.21
2023-03-29T06:43:39.644Z,1.21
2023-03-29T06:44:42.342Z,1.25
2023-03-29T06:45:46.438Z,1.31
2023-03-29T06:46:50.022Z,1.30
2023-03-29T06:47:53.775Z,1.35
2023-03-29T06:48:56.224Z,1.40
2023-03-29T06:49:59.802Z,1.44
2023-03-29T06:51:03.698Z,1.50
2023-03-29T06:52:06.858Z,1.56
2023-03-29T06:53:10.630Z,1.60
2023-03-29T06:54:13.524Z,1.63
2023-03-29T06:55:18.016Z,1.65
2023-03-29T06:56:22.616Z,1.72
2023-03-29T06:57:26.319Z,1.76
2023-03-29T06:58:31.004Z,1.82
2023-03-29T06:59:35.019Z,1.90
2023-03-29T07:00:39.458Z,1.96
2023-03-29T07:01:43.199Z,2.06
2023-03-29T07:02:46.543Z,2.13
2023-03-29T07:03:50.155Z,2.16
2023-03-29T07:04:54.486Z,2.21
2023-03-29T07:06:03.899Z,2.26
2023-03-29T07:07:07.995Z,2.24
2023-03-29T07:08:15.455Z,2.30
2023-03-29T07:09:19.658Z,2.30
2023-03-29T07:10:23.719Z,2.25
2023-03-29T07:11:27.309Z,2.22
2023-03-29T07:12:29.864Z,2.17
2023-03-29T07:13:34.944Z,2.05
2023-03-29T07:14:37.478Z,2.06
2023-03-29T07:15:41.613Z,1.99
2023-03-29T07:16:47.408Z,2.03
2023-03-29T07:17:51.715Z,2.03
2023-03-29T07:18:55.336Z,2.03
2023-03-29T07:19:58.074Z,2.00
2023-03-29T07:21:01.940Z,1.91
2023-03-29T07:22:04.563Z,1.91
2023-03-29T07:23:09.742Z,1.94
2023-03-29T07:24:13.292Z,1.90
2023-03-29T07:25:16.683Z,1.92
2023-03-29T07:26:28.616Z,1.88
2023-03-29T07:27:33.590Z,1.86
2023-03-29T07:28:39.896Z,1.92
2023-03-29T07:29:42.349Z,1.98
2023-03-29T07:30:45.862Z,2.06
2023-03-29T07:31:49.514Z,2.07
2023-03-29T07:32:52.497Z,2.02
2023-03-29T07:33:56.369Z,2.03
2023-03-29T07:34:59.911Z,1.94
2023-03-29T07:36:03.604Z,1.95
2023-03-29T07:37:07.312Z,1.99
2023-03-29T07:38:11.482Z,2.11
2023-03-29T07:39:15.819Z,2.16
2023-03-29T07:40:23.827Z,2.25
2023-03-29T07:41:26.920Z,2.30
2023-03-29T07:42:30.476Z,2.39
2023-03-29T07:43:34.440Z,2.49
2023-03-29T07:44:39.439Z,2.50
2023-03-29T07:45:45.235Z,2.63
2023-03-29T07:46:47.973Z,2.68
2023-03-29T07:47:52.152Z,2.77
2023-03-29T07:48:56.963Z,2.87
2023-03-29T07:49:59.697Z,2.92
2023-03-29T07:51:03.370Z,2.84
2023-03-29T07:52:07.224Z,2.83
2023-03-29T07:53:09.628Z,2.88
2023-03-29T07:54:13.219Z,2.95
2023-03-29T07:55:15.760Z,2.88
2023-03-29T07:56:19.352Z,2.84
2023-03-29T07:57:21.843Z,2.88
2023-03-29T07:58:25.552Z,2.86
2023-03-29T07:59:27.772Z,2.91
2023-03-29T08:00:34.529Z,2.96
2023-03-29T08:01:37.021Z,3.04
2023-03-29T08:02:40.589Z,3.04
2023-03-29T08:03:44.250Z,3.13
2023-03-29T08:04:47.486Z,3.17
2023-03-29T08:05:50.147Z,3.24
2023-03-29T08:06:54.425Z,3.32
2023-03-29T08:07:58.087Z,3.35
2023-03-29T08:09:00.771Z,3.40
2023-03-29T08:10:04.678Z,3.41
2023-03-29T08:11:10.478Z,3.46
2023-03-29T08:12:14.156Z,3.51
2023-03-29T08:13:17.823Z,3.55
2023-03-29T08:14:22.034Z,3.60
2023-03-29T08:15:25.657Z,3.66
2023-03-29T08:16:30.734Z,3.70
2023-03-29T08:17:33.684Z,3.77
2023-03-29T08:18:37.374Z,3.83
2023-03-29T08:19:39.563Z,3.78
2023-03-29T08:20:43.490Z,3.86
2023-03-29T08:21:48.941Z,3.93
2023-03-29T08:22:52.526Z,3.95
2023-03-29T08:23:56.297Z,3.84
2023-03-29T08:24:58.906Z,3.94
2023-03-29T08:26:02.654Z,3.96
2023-03-29T08:27:06.049Z,4.00
2023-03-29T08:28:09.618Z,4.05
2023-03-29T08:29:12.176Z,3.99
2023-03-29T08:30:16.185Z,3.82
2023-03-29T08:31:18.683Z,3.74
2023-03-29T08:32:24.008Z,3.83
2023-03-29T08:33:26.752Z,3.87
2023-03-29T08:34:31.960Z,3.92
2023-03-29T08:35:34.525Z,3.97
2023-03-29T08:36:38.106Z,4.05
2023-03-29T08:37:41.775Z,4.04
2023-03-29T08:38:45.614Z,4.09
2023-03-29T08:39:48.669Z,4.09
2023-03-29T08:40:52.272Z,4.16
2023-03-29T08:42:18.632Z,4.19
2023-03-29T08:43:32.872Z,4.17
2023-03-29T08:44:51.157Z,4.12
2023-03-29T08:46:07.649Z,4.02
2023-03-29T08:47:15.458Z,4.01
2023-03-29T08:48:28.669Z,3.93
2023-03-29T08:49:32.088Z,3.96
2023-03-29T08:50:40.860Z,3.98
2023-03-29T08:51:49.436Z,4.01
2023-03-29T08:52:59.204Z,3.97
2023-03-29T08:54:05.647Z,3.90
2023-03-29T08:55:22.694Z,3.95
2023-03-29T08:56:31.521Z,3.96
2023-03-29T08:57:45.387Z,3.90
2023-03-29T08:58:50.955Z,3.84
2023-03-29T08:59:56.474Z,3.68
2023-03-29T09:01:02.826Z,3.56
2023-03-29T09:02:16.321Z,3.55
2023-03-29T09:03:25.532Z,3.50
2023-03-29T09:04:29.459Z,3.34
2023-03-29T09:05:37.322Z,3.30
2023-03-29T09:06:40.583Z,3.33
2023-03-29T09:07:44.368Z,3.26
2023-03-29T09:08:49.840Z,3.17
2023-03-29T09:09:52.679Z,3.18
2023-03-29T09:11:12.739Z,3.07
2023-03-29T09:12:25.155Z,2.98
2023-03-29T09:13:41.155Z,2.95
2023-03-29T09:14:55.761Z,2.97
2023-03-29T09:16:08.145Z,2.98
2023-03-29T09:17:21.702Z,2.99
2023-03-29T09:18:34.097Z,2.86
2023-03-29T09:19:44.782Z,2.64
2023-03-29T09:20:57.128Z,2.72
2023-03-29T09:22:10.213Z,2.78
2023-03-29T09:23:29.655Z,2.81
2023-03-29T09:24:44.081Z,2.87
2023-03-29T09:25:59.338Z,2.94
2023-03-29T09:27:10.310Z,3.00
2023-03-29T09:28:19.836Z,3.04
2023-03-29T09:29:53.344Z,3.09
2023-03-29T09:31:01.343Z,2.98
2023-03-29T09:32:12.914Z,3.01
2023-03-29T09:33:26.276Z,2.94
2023-03-29T09:34:36.364Z,2.98
2023-03-29T09:35:43.817Z,3.08
2023-03-29T09:36:52.921Z,3.14
2023-03-29T09:37:57.908Z,3.19
2023-03-29T09:39:00.816Z,3.29
2023-03-29T09:40:12.559Z,3.34
2023-03-29T09:41:24.915Z,3.37
2023-03-29T09:42:31.372Z,3.40
2023-03-29T09:43:38.682Z,3.43
2023-03-29T09:44:47.109Z,3.45
2023-03-29T09:45:55.038Z,3.43
2023-03-29T09:47:03.856Z,3.17
2023-03-29T09:48:14.141Z,3.21
2023-03-29T09:49:23.263Z,3.24
2023-03-29T09:50:33.183Z,3.24
2023-03-29T09:51:36.504Z,3.27
2023-03-29T09:52:39.161Z,3.30
2023-03-29T09:53:42.910Z,3.33
2023-03-29T09:54:46.309Z,3.33
2023-03-29T09:55:52.227Z,3.31
2023-03-29T09:56:55.028Z,3.30
2023-03-29T09:58:02.898Z,3.34
2023-03-29T09:59:05.531Z,3.37
2023-03-29T10:00:10.927Z,3.37
2023-03-29T10:01:17.636Z,3.42
2023-03-29T10:02:22.722Z,3.39
2023-03-29T10:03:28.268Z,3.44
2023-03-29T10:04:30.975Z,3.43
2023-03-29T10:05:38.194Z,3.50
2023-03-29T10:06:44.927Z,3.52
2023-03-29T10:07:53.178Z,3.52
2023-03-29T10:08:59.228Z,3.52
2023-03-29T10:10:01.963Z,3.56
2023-03-29T10:11:09.805Z,3.59
2023-03-29T10:12:15.452Z,3.63
2023-03-29T10:13:23.577Z,3.63
2023-03-29T10:14:34.854Z,3.66
2023-03-29T10:15:37.494Z,3.72
2023-03-29T10:16:42.647Z,3.79
2023-03-29T10:17:46.485Z,3.88
2023-03-29T10:18:51.576Z,3.96
2023-03-29T10:19:58.855Z,3.99
2023-03-29T10:21:08.453Z,4.06
2023-03-29T10:22:18.878Z,4.08
2023-03-29T10:23:22.414Z,4.10
2023-03-29T10:24:26.760Z,4.12
2023-03-29T10:25:33.345Z,4.07
2023-03-29T10:26:39.154Z,4.10
2023-03-29T10:27:44.899Z,4.09
2023-03-29T10:28:47.436Z,4.13
2023-03-29T10:29:52.686Z,4.14
2023-03-29T10:30:58.157Z,4.16
2023-03-29T10:32:01.856Z,4.19
2023-03-29T10:33:05.425Z,4.22
2023-03-29T10:34:10.032Z,4.23
2023-03-29T10:35:25.138Z,4.28
2023-03-29T10:36:31.099Z,4.33
2023-03-29T10:37:33.565Z,4.37
2023-03-29T10:38:38.641Z,4.41
2023-03-29T10:39:42.330Z,4.45
2023-03-29T10:40:45.741Z,4.50
2023-03-29T10:41:53.143Z,4.45
2023-03-29T10:42:59.273Z,4.51
2023-03-29T10:44:05.181Z,4.59
2023-03-29T10:45:21.322Z,4.69
2023-03-29T10:46:30.417Z,4.72
2023-03-29T10:47:35.402Z,4.78
2023-03-29T10:48:38.885Z,4.80
2023-03-29T10:49:44.813Z,4.77
2023-03-29T10:50:53.275Z,4.82
2023-03-29T10:51:58.519Z,4.86
2023-03-29T10:53:01.325Z,4.91
2023-03-29T10:54:05.537Z,4.97
2023-03-29T10:55:14.158Z,5.00
2023-03-29T10:56:35.766Z,5.09
2023-03-29T10:57:48.749Z,5.22
2023-03-29T10:59:16.750Z,5.33
2023-03-29T11:00:29.710Z,5.40
2023-03-29T11:01:39.954Z,5.50
2023-03-29T11:03:21.480Z,5.65
2023-03-29T11:04:38.047Z,5.80
2023-03-29T11:05:46.731Z,5.91
2023-03-29T11:07:01.661Z,6.01
2023-03-29T11:08:30.405Z,6.03
2023-03-29T11:09:50.283Z,6.04
2023-03-29T11:11:04.245Z,6.11
2023-03-29T11:12:16.710Z,6.17
2023-03-29T11:13:27.481Z,6.25
2023-03-29T11:14:41.464Z,6.29
2023-03-29T11:15:59.124Z,6.32
2023-03-29T11:17:18.302Z,6.44
2023-03-29T11:18:54.707Z,6.58
2023-03-29T11:20:10.770Z,6.69
2023-03-29T11:21:26.379Z,6.79
2023-03-29T11:22:42.824Z,6.92
2023-03-29T11:23:56.320Z,7.00
2023-03-29T11:25:18.038Z,7.07
2023-03-29T11:26:25.196Z,7.19
2023-03-29T11:27:40.053Z,7.30
2023-03-29T11:28:53.189Z,7.42
2023-03-29T11:30:08.232Z,7.42
2023-03-29T11:31:25.996Z,7.36
2023-03-29T11:32:36.717Z,7.44
2023-03-29T11:33:51.491Z,7.45
2023-03-29T11:35:07.089Z,7.43
2023-03-29T11:36:17.915Z,7.44
2023-03-29T11:37:26.919Z,7.45
2023-03-29T11:38:37.280Z,7.37
2023-03-29T11:39:49.661Z,7.27
2023-03-29T11:41:00.777Z,7.26
2023-03-29T11:42:08.478Z,7.28
2023-03-29T11:43:17.094Z,7.30
2023-03-29T11:44:24.006Z,7.34
2023-03-29T11:45:31.527Z,7.40
2023-03-29T11:46:39.721Z,7.45
2023-03-29T11:47:46.161Z,7.33
2023-03-29T11:48:54.379Z,7.40
2023-03-29T11:49:59.848Z,7.45
2023-03-29T11:51:12.565Z,7.55
2023-03-29T11:52:20.700Z,7.61
2023-03-29T11:53:29.704Z,7.69
2023-03-29T11:54:41.203Z,7.77
2023-03-29T11:55:44.370Z,7.82
2023-03-29T11:56:53.712Z,7.92
2023-03-29T11:57:59.295Z,7.98
2023-03-29T11:59:09.462Z,8.02
2023-03-29T12:00:16.643Z,8.11
2023-03-29T12:01:29.753Z,8.14
2023-03-29T12:02:39.675Z,8.09
2023-03-29T12:03:46.741Z,8.09
2023-03-29T12:04:54.263Z,8.07
2023-03-29T12:06:00.572Z,7.99
2023-03-29T12:07:15.075Z,8.00
2023-03-29T12:08:23.359Z,7.95
2023-03-29T12:09:34.381Z,7.98
2023-03-29T12:10:44.743Z,7.94
2023-03-29T12:11:55.845Z,7.89
2023-03-29T12:13:05.937Z,7.91
2023-03-29T12:14:15.641Z,7.85
2023-03-29T12:15:22.919Z,7.90
2023-03-29T12:16:32.535Z,7.88
2023-03-29T12:17:41.030Z,7.90
2023-03-29T12:18:47.087Z,7.95
2023-03-29T12:19:54.992Z,8.00
2023-03-29T12:21:01.661Z,8.05
2023-03-29T12:22:08.137Z,8.17
2023-03-29T12:23:16.304Z,8.18
2023-03-29T12:24:21.032Z,8.24
2023-03-29T12:25:31.204Z,8.23
2023-03-29T12:27:01.741Z,8.34
2023-03-29T12:28:23.456Z,8.34
2023-03-29T12:29:50.042Z,8.38
2023-03-29T12:31:05.722Z,8.31
2023-03-29T12:32:27.842Z,8.35
2023-03-29T12:33:52.836Z,8.42
2023-03-29T12:35:07.630Z,8.35
2023-03-29T12:36:36.246Z,8.44
2023-03-29T12:37:47.129Z,8.51
2023-03-29T12:38:54.296Z,8.47
2023-03-29T12:40:06.846Z,8.45
2023-03-29T12:41:19.301Z,8.49
2023-03-29T12:42:25.908Z,8.58
2023-03-29T12:43:32.810Z,8.54
2023-03-29T12:44:36.066Z,8.47
2023-03-29T12:45:41.788Z,8.41
2023-03-29T12:46:45.974Z,8.28
2023-03-29T12:47:53.037Z,8.22
2023-03-29T12:49:06.047Z,8.10
2023-03-29T12:50:26.461Z,8.00
2023-03-29T12:51:33.201Z,7.86
2023-03-29T12:52:37.010Z,7.76
2023-03-29T12:53:44.305Z,7.60
2023-03-29T12:54:56.080Z,7.37
2023-03-29T12:56:14.792Z,7.23
2023-03-29T12:57:28.164Z,7.11
2023-03-29T12:58:44.356Z,6.99
2023-03-29T12:59:49.670Z,6.98
2023-03-29T13:01:06.346Z,6.92
2023-03-29T13:02:35.096Z,6.83
2023-03-29T13:03:48.958Z,6.73
2023-03-29T13:04:54.667Z,6.64
2023-03-29T13:06:02.919Z,6.62
2023-03-29T13:07:07.444Z,6.61
2023-03-29T13:08:24.813Z,6.54
2023-03-29T13:09:30.178Z,6.51
2023-03-29T13:10:41.247Z,6.50
2023-03-29T13:11:44.001Z,6.37
2023-03-29T13:12:51.219Z,6.41
2023-03-29T13:13:55.180Z,6.41
2023-03-29T13:15:01.781Z,6.43
2023-03-29T13:16:16.908Z,6.37
2023-03-29T13:17:29.494Z,6.39
2023-03-29T13:18:48.371Z,6.38
2023-03-29T13:20:04.792Z,6.37
2023-03-29T13:21:18.745Z,6.38
2023-03-29T13:22:34.598Z,6.34
2023-03-29T13:23:47.236Z,6.34
2023-03-29T13:25:07.001Z,6.29
2023-03-29T13:26:42.955Z,6.27
2023-03-29T13:27:54.254Z,6.29
2023-03-29T13:29:13.351Z,6.22
2023-03-29T13:30:29.657Z,6.22
2023-03-29T13:31:39.272Z,6.21
2023-03-29T13:32:52.765Z,6.18
2023-03-29T13:34:05.688Z,6.17
2023-03-29T13:35:22.760Z,6.18
2023-03-29T13:36:48.020Z,6.12
2023-03-29T13:38:01.583Z,6.10
2023-03-29T13:39:07.232Z,6.10
2023-03-29T13:40:32.180Z,6.09
2023-03-29T13:41:49.355Z,6.06
2023-03-29T13:43:01.018Z,6.05
2023-03-29T13:44:04.699Z,6.00
2023-03-29T13:45:15.636Z,6.00
2023-03-29T13:46:36.644Z,6.00
2023-03-29T13:47:54.909Z,5.95
2023-03-29T13:49:14.862Z,5.94
2023-03-29T13:50:20.698Z,5.92
2023-03-29T13:51:40.328Z,5.88
2023-03-29T13:52:53.236Z,5.86
2023-03-29T13:54:01.529Z,5.87
2023-03-29T13:55:10.864Z,5.86
2023-03-29T13:56:20.306Z,5.81
2023-03-29T13:57:27.581Z,5.81
2023-03-29T13:58:37.785Z,5.77
2023-03-29T13:59:49.353Z,5.74
2023-03-29T14:01:01.043Z,5.78
2023-03-29T14:02:07.656Z,5.74
2023-03-29T14:03:15.891Z,5.73
2023-03-29T14:04:25.736Z,5.72
2023-03-29T14:05:33.088Z,5.71
2023-03-29T14:06:37.818Z,5.70
2023-03-29T14:07:46.126Z,5.70
2023-03-29T14:08:51.038Z,5.71
2023-03-29T14:09:56.863Z,5.70
2023-03-29T14:11:03.921Z,5.67
2023-03-29T14:12:10.091Z,5.66
2023-03-29T14:13:15.543Z,5.65
2023-03-29T14:14:23.124Z,5.64
2023-03-29T14:15:38.488Z,5.63
2023-03-29T14:16:42.133Z,5.60
2023-03-29T14:17:46.296Z,5.60
2023-03-29T14:18:52.430Z,5.54
2023-03-29T14:19:59.603Z,5.56
2023-03-29T14:21:03.541Z,5.53
2023-03-29T14:22:09.911Z,5.49
2023-03-29T14:23:17.893Z,5.48
2023-03-29T14:24:24.187Z,5.44
2023-03-29T14:25:30.691Z,5.43
2023-03-29T14:26:36.234Z,5.43
2023-03-29T14:27:38.833Z,5.40
2023-03-29T14:28:47.296Z,5.34
2023-03-29T14:29:53.397Z,5.33
2023-03-29T14:30:57.797Z,5.31
2023-03-29T14:32:11.791Z,5.29
2023-03-29T14:33:15.934Z,5.24
2023-03-29T14:34:19.466Z,5.23
2023-03-29T14:35:30.938Z,5.23
2023-03-29T14:36:35.123Z,5.19
2023-03-29T14:37:38.994Z,5.18
2023-03-29T14:38:42.858Z,5.15
2023-03-29T14:39:46.549Z,5.14
2023-03-29T14:40:49.806Z,5.15
2023-03-29T14:41:54.693Z,5.12
2023-03-29T14:42:58.446Z,5.08